Time;durP1;ratioP1;P1;durP2;ratioP2;P2;SDS_P1;SDS_P2;PMS_P1;PMS_P2;Temp;Humidity;BMP_temperature;BMP_pressure;BME280_temperature;BME280_humidity;BME280_pressure;Samples;Min_cycle;Max_cycle;Signal;HPM_P1;HPM_P2
2022/09/30 00:01:38;;;;;;;3.15;2.45;;;;;;;;;;7391274;19;20070;-73
2022/09/30 00:04:04;;;;;;;2.90;2.53;;;;;;;;;;7395772;19;20379;-73
2022/09/30 00:06:31;;;;;;;3.15;2.78;;;;;;;;;;7392062;19;20010;-73
2022/09/30 00:08:56;;;;;;;3.08;2.65;;;;;;;;;;7396695;19;20432;-73
2022/09/30 00:11:26;;;;;;;3.53;2.63;;;;;;;;;;7392268;19;19999;-73
2022/09/30 00:13:52;;;;;;;4.82;2.88;;;;;;;;;;7393308;19;20049;-73
2022/09/30 00:16:22;;;;;;;5.70;3.05;;;;;;;;;;7393779;19;20007;-74
2022/09/30 00:18:48;;;;;;;3.88;2.85;;;;;;;;;;7396153;19;20027;-73
2022/09/30 00:21:15;;;;;;;3.75;2.55;;;;;;;;;;7394607;19;20489;-73
2022/09/30 00:23:42;;;;;;;3.45;2.53;;;;;;;;;;7393404;19;20093;-73
2022/09/30 00:26:11;;;;;;;4.25;3.08;;;;;;;;;;7392866;19;20010;-73
2022/09/30 00:28:38;;;;;;;2.63;2.03;;;;;;;;;;7395198;19;20007;-73
2022/09/30 00:31:06;;;;;;;4.57;3.13;;;;;;;;;;7392584;19;20020;-73
2022/09/30 00:33:33;;;;;;;4.75;3.45;;;;;;;;;;7393454;19;20022;-73
2022/09/30 00:35:59;;;;;;;6.88;3.38;;;;;;;;;;7392116;19;20098;-73
2022/09/30 00:38:24;;;;;;;5.05;3.35;;;;;;;;;;7393485;19;20018;-73
2022/09/30 00:40:50;;;;;;;4.85;3.50;;;;;;;;;;7392616;19;20006;-73
2022/09/30 00:43:50;;;;;;;6.35;3.35;;;;;;;;;;7391999;19;20003;-73
2022/09/30 00:46:25;;;;;;;4.00;3.30;;;;;;;;;;7389725;19;20007;-73
2022/09/30 00:48:53;;;;;;;3.42;2.97;;;;;;;;;;7393087;19;20416;-73
2022/09/30 00:51:42;;;;;;;5.57;3.30;;;;;;;;;;7392482;19;20470;-73
2022/09/30 00:54:22;;;;;;;6.78;3.53;;;;;;;;;;7393224;19;20014;-73
2022/09/30 00:56:51;;;;;;;5.15;3.47;;;;;;;;;;7391569;19;20002;-73
2022/09/30 00:59:21;;;;;;;5.53;3.75;;;;;;;;;;7392459;19;20017;-73
2022/09/30 01:01:47;;;;;;;4.80;3.03;;;;;;;;;;7393170;19;20010;-73
2022/09/30 01:04:22;;;;;;;4.55;3.42;;;;;;;;;;7393062;19;20031;-74
2022/09/30 01:06:48;;;;;;;8.40;4.03;;;;;;;;;;7389560;19;20444;-73
2022/09/30 01:09:14;;;;;;;3.90;3.30;;;;;;;;;;7392047;19;20018;-73
2022/09/30 01:11:39;;;;;;;5.45;3.60;;;;;;;;;;7393241;19;20008;-73
2022/09/30 01:14:18;;;;;;;5.45;3.38;;;;;;;;;;7392656;19;20018;-74
2022/09/30 01:17:09;;;;;;;7.15;4.03;;;;;;;;;;7388610;19;20006;-74
2022/09/30 01:20:11;;;;;;;4.50;3.10;;;;;;;;;;7391355;19;20010;-73
2022/09/30 01:22:52;;;;;;;8.43;4.63;;;;;;;;;;7392175;19;20016;-74
2022/09/30 01:25:55;;;;;;;6.35;3.53;;;;;;;;;;7390772;19;20066;-73
2022/09/30 01:28:41;;;;;;;6.15;4.20;;;;;;;;;;7387390;19;20014;-73
2022/09/30 01:31:28;;;;;;;7.28;4.07;;;;;;;;;;7390621;19;20088;-73
2022/09/30 01:34:23;;;;;;;6.20;3.70;;;;;;;;;;7392528;19;20044;-74
2022/09/30 01:37:09;;;;;;;4.68;3.53;;;;;;;;;;7395564;19;20025;-73
2022/09/30 01:39:42;;;;;;;4.53;3.35;;;;;;;;;;7397177;19;20467;-73
2022/09/30 01:42:32;;;;;;;6.35;3.80;;;;;;;;;;7400494;19;20483;-73
2022/09/30 01:45:18;;;;;;;4.65;3.17;;;;;;;;;;7397192;19;20003;-73
2022/09/30 01:48:09;;;;;;;5.68;3.72;;;;;;;;;;7397513;19;20190;-73
2022/09/30 01:51:02;;;;;;;4.90;3.65;;;;;;;;;;7395794;19;20058;-73
2022/09/30 01:53:44;;;;;;;2.85;2.33;;;;;;;;;;7400355;19;20003;-74
2022/09/30 01:56:21;;;;;;;5.03;3.90;;;;;;;;;;7395657;19;20051;-73
2022/09/30 01:58:56;;;;;;;6.90;3.72;;;;;;;;;;7399698;19;20026;-73
2022/09/30 02:01:32;;;;;;;4.78;3.75;;;;;;;;;;7398927;19;20007;-73
2022/09/30 02:04:04;;;;;;;3.65;2.92;;;;;;;;;;7401016;19;20012;-73
2022/09/30 02:06:36;;;;;;;5.30;3.50;;;;;;;;;;7396570;19;20560;-73
2022/09/30 02:09:08;;;;;;;4.80;2.58;;;;;;;;;;7398568;19;20045;-74
2022/09/30 02:11:35;;;;;;;4.18;2.80;;;;;;;;;;7396881;19;20025;-73
2022/09/30 02:14:25;;;;;;;4.97;3.20;;;;;;;;;;7399648;19;20007;-73
2022/09/30 02:17:08;;;;;;;7.43;3.83;;;;;;;;;;7393335;19;19999;-73
2022/09/30 02:19:39;;;;;;;4.57;3.15;;;;;;;;;;7396257;19;20486;-75
2022/09/30 02:22:27;;;;;;;4.93;3.67;;;;;;;;;;7396489;19;19999;-74
2022/09/30 02:24:59;;;;;;;4.25;3.20;;;;;;;;;;7396334;19;20431;-73
2022/09/30 02:27:32;;;;;;;5.13;3.47;;;;;;;;;;7397923;19;20002;-73
2022/09/30 02:30:02;;;;;;;4.60;3.55;;;;;;;;;;7399059;19;20032;-73
2022/09/30 02:32:37;;;;;;;5.70;3.60;;;;;;;;;;7395956;19;19998;-73
2022/09/30 02:35:09;;;;;;;6.13;3.80;;;;;;;;;;7394564;19;20062;-74
2022/09/30 02:37:38;;;;;;;8.30;4.82;;;;;;;;;;7393771;19;20006;-73
2022/09/30 02:40:06;;;;;;;10.70;4.13;;;;;;;;;;7394189;19;20014;-73
2022/09/30 02:42:32;;;;;;;9.85;4.43;;;;;;;;;;7398326;19;20003;-74
2022/09/30 02:45:02;;;;;;;14.35;3.72;;;;;;;;;;7396700;19;20014;-73
2022/09/30 02:47:43;;;;;;;7.78;3.33;;;;;;;;;;7396385;19;20010;-74
2022/09/30 02:50:18;;;;;;;7.68;3.60;;;;;;;;;;7394802;19;20002;-73
2022/09/30 02:52:59;;;;;;;12.15;3.13;;;;;;;;;;7397156;19;19999;-73
2022/09/30 02:55:33;;;;;;;13.38;3.38;;;;;;;;;;7397068;19;20018;-73
2022/09/30 02:57:59;;;;;;;9.25;3.63;;;;;;;;;;7399941;19;20014;-73
2022/09/30 03:00:25;;;;;;;11.35;3.95;;;;;;;;;;7395226;19;20487;-72
2022/09/30 03:02:57;;;;;;;11.10;3.95;;;;;;;;;;7394015;19;20002;-73
2022/09/30 03:05:23;;;;;;;4.63;3.45;;;;;;;;;;7394778;19;20014;-73
2022/09/30 03:07:48;;;;;;;3.80;2.70;;;;;;;;;;7398683;19;20013;-73
2022/09/30 03:10:15;;;;;;;8.98;5.45;;;;;;;;;;7396112;19;20393;-73
2022/09/30 03:13:06;;;;;;;9.50;6.05;;;;;;;;;;7397506;19;20002;-72
2022/09/30 03:15:31;;;;;;;5.82;3.83;;;;;;;;;;7392733;19;19999;-73
2022/09/30 03:18:21;;;;;;;6.20;4.05;;;;;;;;;;7395371;19;20062;-73
2022/09/30 03:21:05;;;;;;;4.68;3.70;;;;;;;;;;7394635;19;20388;-73
2022/09/30 03:23:59;;;;;;;5.45;3.80;;;;;;;;;;7394221;19;20476;-73
2022/09/30 03:26:58;;;;;;;4.10;2.78;;;;;;;;;;7392077;19;20037;-73
2022/09/30 03:29:42;;;;;;;7.53;3.45;;;;;;;;;;7395278;19;20018;-73
2022/09/30 03:32:29;;;;;;;4.75;3.63;;;;;;;;;;7396110;19;20035;-73
2022/09/30 03:35:13;;;;;;;7.95;2.88;;;;;;;;;;7395053;19;20010;-73
2022/09/30 03:38:04;;;;;;;3.28;2.63;;;;;;;;;;7395359;19;20002;-73
2022/09/30 03:40:39;;;;;;;5.03;3.15;;;;;;;;;;7395901;19;20017;-73
2022/09/30 03:43:24;;;;;;;3.92;3.53;;;;;;;;;;7393227;19;20480;-73
2022/09/30 03:46:14;;;;;;;6.97;3.20;;;;;;;;;;7390084;19;20027;-72
2022/09/30 03:48:41;;;;;;;4.88;3.45;;;;;;;;;;7392826;19;20014;-72
2022/09/30 03:51:08;;;;;;;5.05;3.20;;;;;;;;;;7396058;19;20015;-73
2022/09/30 03:53:39;;;;;;;2.97;2.50;;;;;;;;;;7395259;19;20010;-73
2022/09/30 03:56:04;;;;;;;7.93;2.83;;;;;;;;;;7395248;19;19998;-73
2022/09/30 03:58:30;;;;;;;3.92;3.10;;;;;;;;;;7391948;19;20439;-73
2022/09/30 04:00:56;;;;;;;3.72;2.65;;;;;;;;;;7393773;19;20002;-73
2022/09/30 04:03:22;;;;;;;4.13;2.80;;;;;;;;;;7397691;19;20778;-73
2022/09/30 04:05:48;;;;;;;2.90;2.38;;;;;;;;;;7393420;19;20042;-73
2022/09/30 04:08:14;;;;;;;2.92;2.20;;;;;;;;;;7395738;19;20014;-73
2022/09/30 04:10:40;;;;;;;3.58;2.55;;;;;;;;;;7396048;19;20595;-74
2022/09/30 04:13:06;;;;;;;2.97;2.30;;;;;;;;;;7394890;19;20148;-73
2022/09/30 04:15:32;;;;;;;2.60;2.22;;;;;;;;;;7388651;19;20010;-73
2022/09/30 04:17:58;;;;;;;3.25;2.33;;;;;;;;;;7392580;19;20039;-73
2022/09/30 04:20:23;;;;;;;2.08;1.70;;;;;;;;;;7388660;19;20009;-76
2022/09/30 04:22:49;;;;;;;2.38;2.08;;;;;;;;;;7396347;19;20011;-74
2022/09/30 04:25:14;;;;;;;3.65;2.95;;;;;;;;;;7393785;19;20017;-75
2022/09/30 04:27:39;;;;;;;3.50;2.97;;;;;;;;;;7395341;19;19998;-75
2022/09/30 04:30:05;;;;;;;3.05;2.60;;;;;;;;;;7390795;19;20357;-75
2022/09/30 04:32:31;;;;;;;4.70;3.03;;;;;;;;;;7395071;19;20017;-75
2022/09/30 04:34:56;;;;;;;3.42;2.67;;;;;;;;;;7389367;19;20130;-75
2022/09/30 04:37:22;;;;;;;4.30;3.15;;;;;;;;;;7390612;19;20019;-75
2022/09/30 04:39:48;;;;;;;6.90;4.20;;;;;;;;;;7392416;19;19999;-76
2022/09/30 04:42:13;;;;;;;4.78;3.47;;;;;;;;;;7391984;19;20014;-75
2022/09/30 04:44:38;;;;;;;4.68;2.97;;;;;;;;;;7395512;19;20058;-75
2022/09/30 04:47:05;;;;;;;5.28;3.13;;;;;;;;;;7394397;19;20003;-74
2022/09/30 04:49:31;;;;;;;3.08;2.38;;;;;;;;;;7394566;19;20011;-74
2022/09/30 04:51:56;;;;;;;3.78;2.58;;;;;;;;;;7393863;19;20013;-75
2022/09/30 04:54:22;;;;;;;2.50;2.00;;;;;;;;;;7393006;19;20009;-74
2022/09/30 04:56:47;;;;;;;5.75;2.72;;;;;;;;;;7392948;19;20006;-74
2022/09/30 04:59:12;;;;;;;9.35;3.33;;;;;;;;;;7391474;19;20002;-75
2022/09/30 05:01:39;;;;;;;5.97;2.80;;;;;;;;;;7392426;19;20014;-75
2022/09/30 05:04:04;;;;;;;2.83;2.15;;;;;;;;;;7393263;19;20006;-75
2022/09/30 05:06:30;;;;;;;16.90;3.05;;;;;;;;;;7392795;19;20478;-75
2022/09/30 05:08:55;;;;;;;2.67;2.15;;;;;;;;;;7388880;19;20360;-74
2022/09/30 05:11:21;;;;;;;3.45;1.70;;;;;;;;;;7388672;19;20014;-75
2022/09/30 05:13:47;;;;;;;2.00;1.83;;;;;;;;;;7392481;19;20011;-75
2022/09/30 05:16:14;;;;;;;12.23;2.08;;;;;;;;;;7390078;19;19994;-75
2022/09/30 05:18:44;;;;;;;2.95;2.00;;;;;;;;;;7384532;19;20044;-74
2022/09/30 05:21:11;;;;;;;2.65;2.15;;;;;;;;;;7377119;19;20006;-74
2022/09/30 05:23:37;;;;;;;13.55;2.53;;;;;;;;;;7391202;19;20021;-75
2022/09/30 05:26:03;;;;;;;5.93;2.17;;;;;;;;;;7389368;19;20010;-74
2022/09/30 05:28:30;;;;;;;2.83;1.92;;;;;;;;;;7385892;19;20065;-74
2022/09/30 05:31:00;;;;;;;3.08;2.30;;;;;;;;;;7382257;19;20468;-74
2022/09/30 05:33:30;;;;;;;2.90;1.90;;;;;;;;;;7386143;19;20105;-74
2022/09/30 05:35:59;;;;;;;5.63;2.00;;;;;;;;;;7388612;19;20007;-74
2022/09/30 05:38:25;;;;;;;3.53;2.22;;;;;;;;;;7392179;19;20005;-75
2022/09/30 05:40:50;;;;;;;3.20;2.50;;;;;;;;;;7388452;19;20010;-75
2022/09/30 05:43:15;;;;;;;3.63;2.70;;;;;;;;;;7385594;19;20039;-75
2022/09/30 05:45:41;;;;;;;5.85;3.25;;;;;;;;;;7381832;19;20002;-74
2022/09/30 05:48:06;;;;;;;5.95;3.90;;;;;;;;;;7391943;19;20010;-74
2022/09/30 05:50:32;;;;;;;5.57;3.03;;;;;;;;;;7393694;19;20031;-75
2022/09/30 05:52:57;;;;;;;11.43;4.95;;;;;;;;;;7391836;19;20431;-75
2022/09/30 05:55:23;;;;;;;8.35;4.30;;;;;;;;;;7386239;19;20363;-75
2022/09/30 05:57:50;;;;;;;9.27;4.35;;;;;;;;;;7389442;19;20444;-74
2022/09/30 06:00:16;;;;;;;6.00;3.90;;;;;;;;;;7392099;19;20460;-75
2022/09/30 06:02:42;;;;;;;7.82;3.80;;;;;;;;;;7390539;19;20007;-74
2022/09/30 06:05:08;;;;;;;6.38;4.05;;;;;;;;;;7392162;19;20025;-74
2022/09/30 06:07:35;;;;;;;5.35;3.13;;;;;;;;;;7390861;19;20033;-74
2022/09/30 06:10:02;;;;;;;6.03;3.95;;;;;;;;;;7390658;19;20026;-74
2022/09/30 06:12:27;;;;;;;4.75;2.97;;;;;;;;;;7389994;19;20002;-74
2022/09/30 06:14:54;;;;;;;6.93;3.50;;;;;;;;;;7392191;19;20009;-74
2022/09/30 06:17:20;;;;;;;3.25;2.70;;;;;;;;;;7389302;19;20011;-75
2022/09/30 06:19:46;;;;;;;3.88;2.90;;;;;;;;;;7388959;19;20028;-74
2022/09/30 06:22:11;;;;;;;4.18;3.25;;;;;;;;;;7395827;19;20366;-74
2022/09/30 06:24:36;;;;;;;6.47;3.50;;;;;;;;;;7396818;19;20010;-74
2022/09/30 06:27:02;;;;;;;4.50;3.05;;;;;;;;;;7395399;19;20007;-73
2022/09/30 06:29:27;;;;;;;4.30;3.20;;;;;;;;;;7398873;19;20010;-74
2022/09/30 06:31:52;;;;;;;5.50;3.17;;;;;;;;;;7398632;19;20009;-74
2022/09/30 06:34:18;;;;;;;4.72;3.20;;;;;;;;;;7398476;19;19990;-75
2022/09/30 06:36:43;;;;;;;11.52;3.13;;;;;;;;;;7391638;19;20081;-74
2022/09/30 06:39:09;;;;;;;7.57;3.63;;;;;;;;;;7397366;19;20638;-75
2022/09/30 06:41:36;;;;;;;5.97;3.35;;;;;;;;;;7391546;19;20006;-75
2022/09/30 06:44:02;;;;;;;13.07;3.42;;;;;;;;;;7397239;19;20029;-74
2022/09/30 06:46:27;;;;;;;6.85;3.35;;;;;;;;;;7388925;19;21724;-74
2022/09/30 06:48:55;;;;;;;5.35;2.95;;;;;;;;;;7391913;19;20014;-75
2022/09/30 06:51:20;;;;;;;4.60;2.97;;;;;;;;;;7396720;19;20605;-74
2022/09/30 06:53:49;;;;;;;10.15;3.22;;;;;;;;;;7395643;19;20007;-74
2022/09/30 06:56:17;;;;;;;9.80;3.67;;;;;;;;;;7387940;19;20010;-74
2022/09/30 06:58:44;;;;;;;4.45;3.38;;;;;;;;;;7394176;19;20025;-74
2022/09/30 07:01:12;;;;;;;8.48;3.42;;;;;;;;;;7394542;19;20039;-74
2022/09/30 07:03:37;;;;;;;5.68;3.08;;;;;;;;;;7392461;19;20006;-74
2022/09/30 07:06:05;;;;;;;34.92;7.35;;;;;;;;;;7389050;19;20003;-74
2022/09/30 07:08:32;;;;;;;7.07;4.40;;;;;;;;;;7395964;19;20006;-74
2022/09/30 07:11:15;;;;;;;12.18;4.13;;;;;;;;;;7394263;19;20330;-74
2022/09/30 07:13:44;;;;;;;6.47;3.67;;;;;;;;;;7396532;19;20106;-74
2022/09/30 07:16:10;;;;;;;5.40;3.45;;;;;;;;;;7392399;19;20010;-74
2022/09/30 07:18:37;;;;;;;29.70;4.97;;;;;;;;;;7392292;19;20010;-74
2022/09/30 07:21:04;;;;;;;4.53;2.80;;;;;;;;;;7394148;19;20049;-74
2022/09/30 07:23:30;;;;;;;12.13;2.80;;;;;;;;;;7394498;19;20005;-73
2022/09/30 07:26:03;;;;;;;6.22;2.65;;;;;;;;;;7388609;19;20090;-74
2022/09/30 07:28:32;;;;;;;29.08;3.85;;;;;;;;;;7395011;19;20010;-75
2022/09/30 07:30:59;;;;;;;4.18;3.00;;;;;;;;;;7389577;19;20013;-75
2022/09/30 07:33:27;;;;;;;3.42;2.50;;;;;;;;;;7393159;19;20010;-74
2022/09/30 07:35:55;;;;;;;4.15;3.03;;;;;;;;;;7390625;19;20100;-74
2022/09/30 07:38:23;;;;;;;6.60;3.05;;;;;;;;;;7393328;19;19998;-74
2022/09/30 07:41:06;;;;;;;6.15;4.15;;;;;;;;;;7381820;19;20006;-74
2022/09/30 07:43:39;;;;;;;5.07;3.75;;;;;;;;;;7394933;19;20015;-73
2022/09/30 07:46:04;;;;;;;5.15;3.95;;;;;;;;;;7389590;19;20007;-74
2022/09/30 07:48:50;;;;;;;5.38;4.53;;;;;;;;;;7392566;19;20460;-75
2022/09/30 07:51:26;;;;;;;4.82;3.72;;;;;;;;;;7393943;19;20404;-75
2022/09/30 07:53:55;;;;;;;;;;;;;;;;;;7393655;19;20007;-75
2022/09/30 07:56:22;;;;;;;4.28;3.33;;;;;;;;;;7391802;19;19919;-75
2022/09/30 07:58:48;;;;;;;5.80;4.55;;;;;;;;;;7393238;19;20045;-74
2022/09/30 08:01:15;;;;;;;6.07;4.93;;;;;;;;;;7393890;19;20010;-73
2022/09/30 08:03:43;;;;;;;5.45;4.32;;;;;;;;;;7383886;19;20028;-74
2022/09/30 08:06:14;;;;;;;7.65;3.78;;;;;;;;;;7388019;19;20010;-75
2022/09/30 08:08:40;;;;;;;11.02;4.55;;;;;;;;;;7390931;19;20009;-77
2022/09/30 08:11:06;;;;;;;7.82;4.60;;;;;;;;;;7395303;19;20010;-80
2022/09/30 08:13:32;;;;;;;6.15;4.47;;;;;;;;;;7399140;19;20118;-78
2022/09/30 08:15:58;;;;;;;5.25;3.72;;;;;;;;;;7396231;19;20021;-78
2022/09/30 08:18:23;;;;;;;6.07;4.38;;;;;;;;;;7398471;19;20003;-79
2022/09/30 08:20:49;;;;;;;6.30;4.40;;;;;;;;;;7399155;19;20009;-80
2022/09/30 08:23:14;;;;;;;6.18;4.32;;;;;;;;;;7403539;19;20046;-79
2022/09/30 08:25:40;;;;;;;4.43;3.50;;;;;;;;;;7397289;19;20015;-79
2022/09/30 08:28:05;;;;;;;5.57;3.78;;;;;;;;;;7400856;19;20044;-79
2022/09/30 08:30:34;;;;;;;5.75;4.15;;;;;;;;;;7399878;19;20019;-79
2022/09/30 08:32:59;;;;;;;5.50;3.70;;;;;;;;;;7400535;19;20034;-80
2022/09/30 08:35:25;;;;;;;4.28;3.50;;;;;;;;;;7394974;19;19998;-78
2022/09/30 08:37:50;;;;;;;8.05;3.90;;;;;;;;;;7401636;19;20007;-78
2022/09/30 08:40:41;;;;;;;6.28;3.90;;;;;;;;;;7398017;19;20006;-79
2022/09/30 08:43:26;;;;;;;5.80;3.75;;;;;;;;;;7402906;19;20002;-79
2022/09/30 08:46:03;;;;;;;12.57;3.58;;;;;;;;;;7400170;19;20492;-80
2022/09/30 08:48:51;;;;;;;5.05;3.75;;;;;;;;;;7397072;19;20086;-78
2022/09/30 08:51:42;;;;;;;5.85;3.90;;;;;;;;;;7397773;19;20011;-79
2022/09/30 08:54:13;;;;;;;5.25;3.58;;;;;;;;;;7390429;19;20003;-76
2022/09/30 08:56:38;;;;;;;5.50;3.63;;;;;;;;;;7397326;19;21197;-77
2022/09/30 08:59:33;;;;;;;5.13;3.45;;;;;;;;;;7399379;19;20014;-78
2022/09/30 09:02:43;;;;;;;3.28;2.60;;;;;;;;;;7397764;19;20044;-79
2022/09/30 09:05:23;;;;;;;5.30;3.22;;;;;;;;;;7398567;19;20010;-75
2022/09/30 09:07:59;;;;;;;4.40;2.80;;;;;;;;;;7398602;19;20007;-79
2022/09/30 09:10:42;;;;;;;4.15;3.10;;;;;;;;;;7397146;19;20566;-78
2022/09/30 09:13:07;;;;;;;3.75;2.50;;;;;;;;;;7402377;19;20565;-77
2022/09/30 09:15:53;;;;;;;2.15;1.83;;;;;;;;;;7400465;19;20003;-79
2022/09/30 09:18:40;;;;;;;2.15;1.90;;;;;;;;;;7390209;19;20010;-79
2022/09/30 09:21:18;;;;;;;2.03;1.80;;;;;;;;;;7400879;19;20011;-79
2022/09/30 09:23:43;;;;;;;2.03;1.83;;;;;;;;;;7400500;19;20028;-77
2022/09/30 09:26:12;;;;;;;1.58;1.42;;;;;;;;;;7392242;19;20007;-81
2022/09/30 09:29:05;;;;;;;2.03;1.83;;;;;;;;;;7394895;19;20019;-77
2022/09/30 09:31:31;;;;;;;2.22;1.92;;;;;;;;;;7397270;19;20014;-79
2022/09/30 09:34:09;;;;;;;3.70;2.35;;;;;;;;;;7396025;19;20010;-77
2022/09/30 09:37:02;;;;;;;2.10;1.77;;;;;;;;;;7397661;19;20007;-79
2022/09/30 09:39:54;;;;;;;2.35;2.05;;;;;;;;;;7396134;19;20011;-78
2022/09/30 09:42:25;;;;;;;2.13;1.48;;;;;;;;;;7395893;19;20002;-80
2022/09/30 09:45:02;;;;;;;1.42;1.30;;;;;;;;;;7396976;19;20074;-79
2022/09/30 09:47:27;;;;;;;1.20;1.10;;;;;;;;;;7394158;19;20078;-80
2022/09/30 09:50:03;;;;;;;1.40;1.30;;;;;;;;;;7397002;19;20016;-79
2022/09/30 09:52:51;;;;;;;1.40;1.30;;;;;;;;;;7398100;19;20025;-78
2022/09/30 09:55:20;;;;;;;2.80;1.40;;;;;;;;;;7387283;19;20007;-78
2022/09/30 09:57:46;;;;;;;1.40;1.10;;;;;;;;;;7398729;19;20021;-78
2022/09/30 10:03:23;;;;;;;1.52;1.15;;;;;;;;;;7406304;19;20022;-78
2022/09/30 10:06:02;;;;;;;1.10;1.00;;;;;;;;;;7399369;19;20027;-79
2022/09/30 10:08:31;;;;;;;1.15;1.05;;;;;;;;;;7398023;19;20485;-77
2022/09/30 10:11:02;;;;;;;1.40;1.30;;;;;;;;;;7401383;19;20003;-79
2022/09/30 10:13:37;;;;;;;1.38;1.00;;;;;;;;;;7396384;19;20114;-79
2022/09/30 10:16:03;;;;;;;1.85;1.30;;;;;;;;;;7389818;19;20395;-78
2022/09/30 10:18:33;;;;;;;2.08;1.20;;;;;;;;;;7391402;19;20174;-78
2022/09/30 10:21:19;;;;;;;0.77;0.77;;;;;;;;;;7404472;19;20007;-79
2022/09/30 10:23:45;;;;;;;0.70;0.70;;;;;;;;;;7398121;19;20039;-78
2022/09/30 10:26:13;;;;;;;1.25;1.10;;;;;;;;;;7397075;19;20019;-78
2022/09/30 10:28:51;;;;;;;4.93;1.92;;;;;;;;;;7400434;19;20015;-78
2022/09/30 10:31:36;;;;;;;2.05;1.80;;;;;;;;;;7401699;19;20006;-79
2022/09/30 10:34:23;;;;;;;1.15;0.95;;;;;;;;;;7398111;19;20018;-78
2022/09/30 10:36:49;;;;;;;1.20;1.10;;;;;;;;;;7399905;19;20045;-78
2022/09/30 10:39:22;;;;;;;1.30;1.13;;;;;;;;;;7396335;19;20003;-78
2022/09/30 10:41:49;;;;;;;1.10;1.00;;;;;;;;;;7398068;19;20016;-78
2022/09/30 10:44:21;;;;;;;1.30;1.08;;;;;;;;;;7400671;19;20009;-79
2022/09/30 10:46:49;;;;;;;0.82;0.80;;;;;;;;;;7400036;19;20010;-78
2022/09/30 10:49:34;;;;;;;1.00;0.90;;;;;;;;;;7395518;19;20002;-78
2022/09/30 10:52:00;;;;;;;1.20;1.10;;;;;;;;;;7397378;19;20031;-77
2022/09/30 10:54:38;;;;;;;0.90;0.90;;;;;;;;;;7395558;19;20044;-76
2022/09/30 10:57:04;;;;;;;1.17;1.08;;;;;;;;;;7393899;19;20011;-77
2022/09/30 10:59:37;;;;;;;1.20;1.10;;;;;;;;;;7396182;19;20128;-78
2022/09/30 11:02:09;;;;;;;1.50;1.10;;;;;;;;;;7394356;19;20013;-77
2022/09/30 11:04:42;;;;;;;1.35;1.25;;;;;;;;;;7400120;19;20464;-78
2022/09/30 11:07:14;;;;;;;1.40;1.23;;;;;;;;;;7395982;19;20014;-78
2022/09/30 11:09:49;;;;;;;1.95;1.20;;;;;;;;;;7393962;19;20046;-78
2022/09/30 11:12:28;;;;;;;1.60;1.10;;;;;;;;;;7397382;19;20010;-78
2022/09/30 11:15:05;;;;;;;1.20;1.10;;;;;;;;;;7399837;19;19999;-76
2022/09/30 11:17:49;;;;;;;1.85;1.20;;;;;;;;;;7396914;19;20002;-77
2022/09/30 11:20:34;;;;;;;1.35;1.25;;;;;;;;;;7400776;19;20011;-78
2022/09/30 11:23:06;;;;;;;0.80;0.80;;;;;;;;;;7396841;19;20088;-78
2022/09/30 11:25:57;;;;;;;1.27;1.17;;;;;;;;;;7391021;19;20014;-78
2022/09/30 11:28:47;;;;;;;2.65;1.00;;;;;;;;;;7395636;19;20038;-78
2022/09/30 11:31:56;;;;;;;1.15;0.90;;;;;;;;;;7395284;19;20002;-79
2022/09/30 11:34:46;;;;;;;0.98;0.75;;;;;;;;;;7393667;19;20011;-79
2022/09/30 11:37:38;;;;;;;1.67;1.05;;;;;;;;;;7397987;19;20011;-78
2022/09/30 11:40:09;;;;;;;1.10;1.00;;;;;;;;;;7395904;19;20007;-78
2022/09/30 11:42:44;;;;;;;0.88;0.88;;;;;;;;;;7396796;19;20019;-77
2022/09/30 11:45:32;;;;;;;0.90;0.90;;;;;;;;;;7398462;19;20010;-78
2022/09/30 11:48:35;;;;;;;0.95;0.90;;;;;;;;;;7394919;19;20014;-78
2022/09/30 11:51:09;;;;;;;0.90;0.90;;;;;;;;;;7399694;19;20110;-78
2022/09/30 11:53:43;;;;;;;0.90;0.90;;;;;;;;;;7396332;19;20010;-78
2022/09/30 11:56:43;;;;;;;1.13;1.03;;;;;;;;;;7396938;19;20077;-76
2022/09/30 11:59:17;;;;;;;1.83;1.10;;;;;;;;;;7401983;19;20270;-78
2022/09/30 12:01:49;;;;;;;1.15;0.98;;;;;;;;;;7400595;19;20507;-78
2022/09/30 12:04:30;;;;;;;2.28;0.90;;;;;;;;;;7398879;19;20001;-78
2022/09/30 12:07:05;;;;;;;0.82;0.82;;;;;;;;;;7398776;19;20459;-78
2022/09/30 12:09:39;;;;;;;0.93;0.90;;;;;;;;;;7398597;19;20006;-78
2022/09/30 12:12:13;;;;;;;0.90;0.90;;;;;;;;;;7399188;19;20312;-76
2022/09/30 12:14:53;;;;;;;0.65;0.65;;;;;;;;;;7400358;19;20010;-78
2022/09/30 12:17:28;;;;;;;1.02;0.80;;;;;;;;;;7396153;19;20035;-78
2022/09/30 12:19:57;;;;;;;0.80;0.80;;;;;;;;;;7398781;19;20006;-79
2022/09/30 12:22:28;;;;;;;1.08;0.98;;;;;;;;;;7395604;19;20243;-78
2022/09/30 12:24:53;;;;;;;1.20;1.10;;;;;;;;;;7397661;19;19999;-78
2022/09/30 12:27:32;;;;;;;3.53;0.90;;;;;;;;;;7400324;19;20006;-79
2022/09/30 12:30:16;;;;;;;0.90;0.90;;;;;;;;;;7397759;19;20011;-79
2022/09/30 12:33:09;;;;;;;1.27;0.95;;;;;;;;;;7397192;19;20007;-78
2022/09/30 12:36:20;;;;;;;0.73;0.73;;;;;;;;;;7396690;19;20014;-78
2022/09/30 12:39:06;;;;;;;0.70;0.70;;;;;;;;;;7393160;19;20010;-79
2022/09/30 12:42:05;;;;;;;0.77;0.73;;;;;;;;;;7393236;19;20475;-78
2022/09/30 12:45:16;;;;;;;1.33;1.10;;;;;;;;;;7396950;19;20039;-78
2022/09/30 12:47:51;;;;;;;0.90;0.63;;;;;;;;;;7397441;19;20006;-78
2022/09/30 12:50:20;;;;;;;0.70;0.70;;;;;;;;;;7397266;19;20012;-79
2022/09/30 12:52:47;;;;;;;0.95;0.82;;;;;;;;;;7397378;19;20025;-78
2022/09/30 12:55:30;;;;;;;2.63;1.10;;;;;;;;;;7388983;19;20006;-79
2022/09/30 12:57:57;;;;;;;0.93;0.88;;;;;;;;;;7400354;19;20463;-78
2022/09/30 13:00:29;;;;;;;2.58;1.30;;;;;;;;;;7397801;19;20036;-78
2022/09/30 13:03:01;;;;;;;1.00;0.90;;;;;;;;;;7395551;19;20006;-79
2022/09/30 13:05:46;;;;;;;0.90;0.90;;;;;;;;;;7394593;19;20003;-78
2022/09/30 13:08:15;;;;;;;1.23;0.82;;;;;;;;;;7392333;19;20042;-77
2022/09/30 13:10:46;;;;;;;0.77;0.60;;;;;;;;;;7396364;19;20007;-78
2022/09/30 13:13:23;;;;;;;1.33;0.80;;;;;;;;;;7394498;19;20017;-77
2022/09/30 13:15:55;;;;;;;1.88;0.93;;;;;;;;;;7389355;19;20013;-77
2022/09/30 13:18:20;;;;;;;1.65;0.98;;;;;;;;;;7396022;19;20360;-77
2022/09/30 13:20:56;;;;;;;0.80;0.77;;;;;;;;;;7395031;19;20007;-77
2022/09/30 13:23:42;;;;;;;1.90;0.60;;;;;;;;;;7395340;19;20374;-76
2022/09/30 13:26:26;;;;;;;0.70;0.60;;;;;;;;;;7391563;19;20007;-77
2022/09/30 13:28:59;;;;;;;1.67;0.80;;;;;;;;;;7394609;19;20086;-78
2022/09/30 13:31:31;;;;;;;0.57;0.57;;;;;;;;;;7394982;19;20010;-78
2022/09/30 13:34:07;;;;;;;0.82;0.60;;;;;;;;;;7395667;19;20379;-77
2022/09/30 13:36:50;;;;;;;1.00;0.80;;;;;;;;;;7393211;19;20421;-77
2022/09/30 13:39:22;;;;;;;0.85;0.70;;;;;;;;;;7395023;19;20066;-78
2022/09/30 13:42:10;;;;;;;0.90;0.60;;;;;;;;;;7397638;19;20465;-78
2022/09/30 13:45:15;;;;;;;0.47;0.47;;;;;;;;;;7395003;19;20018;-78
2022/09/30 13:48:22;;;;;;;0.60;0.60;;;;;;;;;;7392163;19;20015;-77
2022/09/30 13:50:51;;;;;;;1.30;0.70;;;;;;;;;;7394877;19;20014;-78
2022/09/30 13:53:38;;;;;;;1.15;0.93;;;;;;;;;;7396656;19;20384;-79
2022/09/30 13:56:25;;;;;;;3.05;1.00;;;;;;;;;;7393572;19;20030;-75
2022/09/30 13:58:59;;;;;;;2.60;0.75;;;;;;;;;;7402014;19;20484;-77
2022/09/30 14:01:52;;;;;;;0.80;0.80;;;;;;;;;;7397508;19;20038;-77
2022/09/30 14:04:59;;;;;;;0.77;0.77;;;;;;;;;;7405184;19;20007;-78
2022/09/30 14:07:59;;;;;;;1.63;0.90;;;;;;;;;;7406689;19;20134;-76
2022/09/30 14:10:27;;;;;;;0.80;0.80;;;;;;;;;;7398800;19;19999;-78
2022/09/30 14:13:18;;;;;;;0.90;0.70;;;;;;;;;;7394247;19;20018;-77
2022/09/30 14:16:20;;;;;;;0.80;0.70;;;;;;;;;;7390332;19;20014;-76
2022/09/30 14:19:06;;;;;;;0.68;0.68;;;;;;;;;;7392538;19;19995;-76
2022/09/30 14:21:45;;;;;;;0.70;0.70;;;;;;;;;;7391251;19;20002;-74
2022/09/30 14:24:16;;;;;;;0.60;0.60;;;;;;;;;;7391821;19;20021;-73
2022/09/30 14:26:47;;;;;;;2.42;1.20;;;;;;;;;;7387582;19;20025;-73
2022/09/30 14:29:34;;;;;;;4.47;0.80;;;;;;;;;;7390476;19;20003;-73
2022/09/30 14:32:01;;;;;;;1.63;0.70;;;;;;;;;;7389877;19;20455;-73
2022/09/30 14:34:28;;;;;;;1.10;0.70;;;;;;;;;;7390332;19;20018;-75
2022/09/30 14:36:54;;;;;;;0.63;0.50;;;;;;;;;;7385774;19;20011;-74
2022/09/30 14:39:24;;;;;;;0.43;0.43;;;;;;;;;;7388218;19;20066;-75
2022/09/30 14:41:56;;;;;;;0.45;0.45;;;;;;;;;;7390691;19;20007;-76
2022/09/30 14:44:25;;;;;;;0.45;0.45;;;;;;;;;;7394963;19;20085;-77
2022/09/30 14:46:54;;;;;;;0.47;0.40;;;;;;;;;;7394355;19;20081;-77
2022/09/30 14:49:31;;;;;;;1.15;0.70;;;;;;;;;;7393901;19;20015;-75
2022/09/30 14:51:59;;;;;;;63.90;4.13;;;;;;;;;;7397865;19;20030;-77
2022/09/30 14:54:27;;;;;;;2.60;1.02;;;;;;;;;;7397612;19;20019;-77
2022/09/30 14:56:53;;;;;;;4.90;0.90;;;;;;;;;;7391815;19;20010;-79
2022/09/30 14:59:35;;;;;;;1.95;0.70;;;;;;;;;;7396905;19;20070;-78
2022/09/30 15:02:19;;;;;;;0.35;0.35;;;;;;;;;;7397616;19;20043;-77
2022/09/30 15:04:51;;;;;;;0.68;0.30;;;;;;;;;;7396267;19;20022;-77
2022/09/30 15:07:17;;;;;;;0.98;0.40;;;;;;;;;;7396986;19;20035;-77
2022/09/30 15:09:45;;;;;;;0.40;0.40;;;;;;;;;;7397561;19;20061;-77
2022/09/30 15:12:17;;;;;;;0.30;0.28;;;;;;;;;;7396034;19;20082;-77
2022/09/30 15:14:46;;;;;;;0.40;0.40;;;;;;;;;;7396952;19;20010;-77
2022/09/30 15:17:26;;;;;;;1.08;0.45;;;;;;;;;;7390758;19;20003;-76
2022/09/30 15:19:54;;;;;;;0.40;0.40;;;;;;;;;;7397552;19;20015;-76
2022/09/30 15:22:22;;;;;;;0.95;0.70;;;;;;;;;;7395898;19;20003;-77
2022/09/30 15:24:49;;;;;;;1.50;0.90;;;;;;;;;;7395664;19;20074;-77
2022/09/30 15:27:24;;;;;;;1.05;0.70;;;;;;;;;;7391388;19;20445;-77